sensor_id;sensor_type;location;lat;lon;timestamp;P1;durP1;ratioP1;P2;durP2;ratioP2
78674;SDS011;67990;59.826;30.108;2023-06-14T00:02:36;12.27;;;4.88;;
78674;SDS011;67990;59.826;30.108;2023-06-14T00:05:03;15.52;;;5.53;;
78674;SDS011;67990;59.826;30.108;2023-06-14T00:07:34;9.85;;;4.57;;
78674;SDS011;67990;59.826;30.108;2023-06-14T00:10:22;13.10;;;5.20;;
78674;SDS011;67990;59.826;30.108;2023-06-14T00:12:49;12.52;;;4.72;;
78674;SDS011;67990;59.826;30.108;2023-06-14T00:15:52;12.60;;;5.18;;
78674;SDS011;67990;59.826;30.108;2023-06-14T00:18:21;10.50;;;4.72;;
78674;SDS011;67990;59.826;30.108;2023-06-14T00:21:07;13.95;;;4.35;;
78674;SDS011;67990;59.826;30.108;2023-06-14T00:23:34;16.20;;;5.37;;
78674;SDS011;67990;59.826;30.108;2023-06-14T00:26:01;12.85;;;5.10;;
78674;SDS011;67990;59.826;30.108;2023-06-14T00:28:28;12.10;;;4.88;;
78674;SDS011;67990;59.826;30.108;2023-06-14T00:30:55;12.82;;;5.03;;
78674;SDS011;67990;59.826;30.108;2023-06-14T00:33:24;10.35;;;4.57;;
78674;SDS011;67990;59.826;30.108;2023-06-14T00:36:11;15.93;;;4.70;;
78674;SDS011;67990;59.826;30.108;2023-06-14T00:38:39;11.80;;;4.70;;
78674;SDS011;67990;59.826;30.108;2023-06-14T00:41:43;10.40;;;4.40;;
78674;SDS011;67990;59.826;30.108;2023-06-14T00:44:10;10.02;;;4.20;;
78674;SDS011;67990;59.826;30.108;2023-06-14T00:46:40;14.35;;;4.70;;
78674;SDS011;67990;59.826;30.108;2023-06-14T00:49:28;10.37;;;4.83;;
78674;SDS011;67990;59.826;30.108;2023-06-14T00:54:42;10.70;;;4.80;;
78674;SDS011;67990;59.826;30.108;2023-06-14T00:57:10;9.50;;;4.30;;
78674;SDS011;67990;59.826;30.108;2023-06-14T00:59:38;16.52;;;4.88;;
78674;SDS011;67990;59.826;30.108;2023-06-14T01:04:56;10.97;;;3.90;;
78674;SDS011;67990;59.826;30.108;2023-06-14T01:10:18;12.05;;;3.97;;
78674;SDS011;67990;59.826;30.108;2023-06-14T01:12:55;11.52;;;4.30;;
78674;SDS011;67990;59.826;30.108;2023-06-14T01:15:27;11.77;;;3.70;;
78674;SDS011;67990;59.826;30.108;2023-06-14T01:17:57;11.80;;;4.73;;
78674;SDS011;67990;59.826;30.108;2023-06-14T01:20:31;8.88;;;3.60;;
78674;SDS011;67990;59.826;30.108;2023-06-14T01:23:04;11.57;;;3.53;;
78674;SDS011;67990;59.826;30.108;2023-06-14T01:25:32;9.70;;;3.88;;
78674;SDS011;67990;59.826;30.108;2023-06-14T01:28:01;10.70;;;3.72;;
78674;SDS011;67990;59.826;30.108;2023-06-14T01:30:35;8.53;;;3.60;;
78674;SDS011;67990;59.826;30.108;2023-06-14T01:33:04;9.65;;;3.83;;
78674;SDS011;67990;59.826;30.108;2023-06-14T01:35:31;10.70;;;3.67;;
78674;SDS011;67990;59.826;30.108;2023-06-14T01:38:01;10.75;;;3.60;;
78674;SDS011;67990;59.826;30.108;2023-06-14T01:40:32;10.07;;;3.10;;
78674;SDS011;67990;59.826;30.108;2023-06-14T01:43:01;11.03;;;3.63;;
78674;SDS011;67990;59.826;30.108;2023-06-14T01:45:30;11.93;;;3.55;;
78674;SDS011;67990;59.826;30.108;2023-06-14T01:47:58;10.43;;;3.50;;
78674;SDS011;67990;59.826;30.108;2023-06-14T01:50:27;8.70;;;3.13;;
78674;SDS011;67990;59.826;30.108;2023-06-14T01:52:56;7.97;;;3.65;;
78674;SDS011;67990;59.826;30.108;2023-06-14T01:55:24;7.93;;;3.07;;
78674;SDS011;67990;59.826;30.108;2023-06-14T01:57:52;9.88;;;3.40;;
78674;SDS011;67990;59.826;30.108;2023-06-14T02:00:20;9.45;;;3.42;;
78674;SDS011;67990;59.826;30.108;2023-06-14T02:02:47;8.95;;;3.00;;
78674;SDS011;67990;59.826;30.108;2023-06-14T02:05:15;8.65;;;3.47;;
78674;SDS011;67990;59.826;30.108;2023-06-14T02:07:44;9.67;;;3.40;;
78674;SDS011;67990;59.826;30.108;2023-06-14T02:10:15;7.78;;;3.20;;
78674;SDS011;67990;59.826;30.108;2023-06-14T02:12:43;10.38;;;3.13;;
78674;SDS011;67990;59.826;30.108;2023-06-14T02:15:12;6.95;;;3.10;;
78674;SDS011;67990;59.826;30.108;2023-06-14T02:17:42;7.32;;;3.25;;
78674;SDS011;67990;59.826;30.108;2023-06-14T02:20:45;8.70;;;3.60;;
78674;SDS011;67990;59.826;30.108;2023-06-14T02:23:12;10.87;;;3.77;;
78674;SDS011;67990;59.826;30.108;2023-06-14T02:25:40;7.57;;;2.80;;
78674;SDS011;67990;59.826;30.108;2023-06-14T02:28:08;11.52;;;3.42;;
78674;SDS011;67990;59.826;30.108;2023-06-14T02:30:54;9.05;;;3.20;;
78674;SDS011;67990;59.826;30.108;2023-06-14T02:33:22;8.93;;;3.58;;
78674;SDS011;67990;59.826;30.108;2023-06-14T02:36:07;6.90;;;2.80;;
78674;SDS011;67990;59.826;30.108;2023-06-14T02:38:34;6.33;;;2.80;;
78674;SDS011;67990;59.826;30.108;2023-06-14T02:41:19;7.45;;;2.83;;
78674;SDS011;67990;59.826;30.108;2023-06-14T02:43:47;8.10;;;3.28;;
78674;SDS011;67990;59.826;30.108;2023-06-14T02:46:15;10.23;;;3.10;;
78674;SDS011;67990;59.826;30.108;2023-06-14T02:51:46;9.17;;;2.77;;
78674;SDS011;67990;59.826;30.108;2023-06-14T02:54:15;7.25;;;2.75;;
78674;SDS011;67990;59.826;30.108;2023-06-14T02:56:43;8.50;;;3.65;;
78674;SDS011;67990;59.826;30.108;2023-06-14T02:59:10;6.95;;;3.00;;
78674;SDS011;67990;59.826;30.108;2023-06-14T03:02:15;6.75;;;2.78;;
78674;SDS011;67990;59.826;30.108;2023-06-14T03:04:43;6.10;;;2.47;;
78674;SDS011;67990;59.826;30.108;2023-06-14T03:07:30;6.33;;;2.70;;
78674;SDS011;67990;59.826;30.108;2023-06-14T03:09:59;5.60;;;2.53;;
78674;SDS011;67990;59.826;30.108;2023-06-14T03:12:45;5.45;;;2.60;;
78674;SDS011;67990;59.826;30.108;2023-06-14T03:15:30;5.60;;;2.30;;
78674;SDS011;67990;59.826;30.108;2023-06-14T03:18:19;6.40;;;2.20;;
78674;SDS011;67990;59.826;30.108;2023-06-14T03:20:50;5.57;;;2.70;;
78674;SDS011;67990;59.826;30.108;2023-06-14T03:23:18;5.60;;;2.90;;
78674;SDS011;67990;59.826;30.108;2023-06-14T03:28:32;5.85;;;2.58;;
78674;SDS011;67990;59.826;30.108;2023-06-14T03:31:00;4.93;;;2.20;;
78674;SDS011;67990;59.826;30.108;2023-06-14T03:33:46;5.85;;;2.55;;
78674;SDS011;67990;59.826;30.108;2023-06-14T03:36:14;5.80;;;3.10;;
78674;SDS011;67990;59.826;30.108;2023-06-14T03:38:43;5.43;;;2.90;;
78674;SDS011;67990;59.826;30.108;2023-06-14T03:41:12;6.40;;;2.07;;
78674;SDS011;67990;59.826;30.108;2023-06-14T03:43:39;4.93;;;2.53;;
78674;SDS011;67990;59.826;30.108;2023-06-14T03:46:06;7.35;;;2.38;;
78674;SDS011;67990;59.826;30.108;2023-06-14T03:48:34;5.82;;;2.65;;
78674;SDS011;67990;59.826;30.108;2023-06-14T03:51:03;5.78;;;3.25;;
78674;SDS011;67990;59.826;30.108;2023-06-14T03:53:30;5.03;;;2.97;;
78674;SDS011;67990;59.826;30.108;2023-06-14T03:55:58;5.78;;;3.00;;
78674;SDS011;67990;59.826;30.108;2023-06-14T03:58:32;5.85;;;3.50;;
78674;SDS011;67990;59.826;30.108;2023-06-14T04:01:00;6.97;;;3.22;;
78674;SDS011;67990;59.826;30.108;2023-06-14T04:03:47;8.40;;;2.93;;
78674;SDS011;67990;59.826;30.108;2023-06-14T04:06:34;6.33;;;3.07;;
78674;SDS011;67990;59.826;30.108;2023-06-14T04:09:19;6.88;;;2.58;;
78674;SDS011;67990;59.826;30.108;2023-06-14T04:12:05;5.57;;;3.38;;
78674;SDS011;67990;59.826;30.108;2023-06-14T04:14:34;4.40;;;3.20;;
78674;SDS011;67990;59.826;30.108;2023-06-14T04:17:02;6.78;;;3.33;;
78674;SDS011;67990;59.826;30.108;2023-06-14T04:19:29;10.65;;;3.50;;
78674;SDS011;67990;59.826;30.108;2023-06-14T04:21:58;7.60;;;3.50;;
78674;SDS011;67990;59.826;30.108;2023-06-14T04:27:12;6.13;;;3.47;;
78674;SDS011;67990;59.826;30.108;2023-06-14T04:29:40;5.60;;;3.40;;
78674;SDS011;67990;59.826;30.108;2023-06-14T04:32:11;5.57;;;3.83;;
78674;SDS011;67990;59.826;30.108;2023-06-14T04:34:39;5.85;;;3.05;;
78674;SDS011;67990;59.826;30.108;2023-06-14T04:39:57;6.07;;;3.85;;
78674;SDS011;67990;59.826;30.108;2023-06-14T04:42:24;9.80;;;4.28;;
78674;SDS011;67990;59.826;30.108;2023-06-14T04:45:14;6.03;;;3.67;;
78674;SDS011;67990;59.826;30.108;2023-06-14T04:48:02;4.80;;;3.60;;
78674;SDS011;67990;59.826;30.108;2023-06-14T04:50:50;5.57;;;4.43;;
78674;SDS011;67990;59.826;30.108;2023-06-14T04:53:56;6.35;;;4.35;;
78674;SDS011;67990;59.826;30.108;2023-06-14T04:59:31;6.45;;;4.28;;
78674;SDS011;67990;59.826;30.108;2023-06-14T05:02:01;5.70;;;4.55;;
78674;SDS011;67990;59.826;30.108;2023-06-14T05:04:28;8.60;;;5.20;;
78674;SDS011;67990;59.826;30.108;2023-06-14T05:06:57;7.07;;;4.93;;
78674;SDS011;67990;59.826;30.108;2023-06-14T05:09:26;8.63;;;5.18;;
78674;SDS011;67990;59.826;30.108;2023-06-14T05:11:53;7.43;;;4.85;;
78674;SDS011;67990;59.826;30.108;2023-06-14T05:14:21;6.55;;;4.68;;
78674;SDS011;67990;59.826;30.108;2023-06-14T05:17:07;6.47;;;4.70;;
78674;SDS011;67990;59.826;30.108;2023-06-14T05:19:51;6.00;;;5.33;;
78674;SDS011;67990;59.826;30.108;2023-06-14T05:26:00;7.38;;;4.78;;
78674;SDS011;67990;59.826;30.108;2023-06-14T05:28:48;6.38;;;5.30;;
78674;SDS011;67990;59.826;30.108;2023-06-14T05:31:18;7.20;;;6.53;;
78674;SDS011;67990;59.826;30.108;2023-06-14T05:34:02;7.10;;;6.03;;
78674;SDS011;67990;59.826;30.108;2023-06-14T05:36:48;6.77;;;6.07;;
78674;SDS011;67990;59.826;30.108;2023-06-14T05:39:15;6.57;;;5.97;;
78674;SDS011;67990;59.826;30.108;2023-06-14T05:41:44;7.57;;;6.90;;
78674;SDS011;67990;59.826;30.108;2023-06-14T05:44:47;8.23;;;7.18;;
78674;SDS011;67990;59.826;30.108;2023-06-14T05:47:32;8.13;;;7.43;;
78674;SDS011;67990;59.826;30.108;2023-06-14T05:55:31;8.38;;;7.68;;
78674;SDS011;67990;59.826;30.108;2023-06-14T05:57:59;8.38;;;7.57;;
78674;SDS011;67990;59.826;30.108;2023-06-14T06:00:26;8.77;;;8.07;;
78674;SDS011;67990;59.826;30.108;2023-06-14T06:02:55;8.40;;;7.60;;
78674;SDS011;67990;59.826;30.108;2023-06-14T06:05:24;9.07;;;8.35;;
78674;SDS011;67990;59.826;30.108;2023-06-14T06:07:51;10.05;;;9.25;;
78674;SDS011;67990;59.826;30.108;2023-06-14T06:13:24;9.95;;;8.65;;
78674;SDS011;67990;59.826;30.108;2023-06-14T06:15:51;9.03;;;8.23;;
78674;SDS011;67990;59.826;30.108;2023-06-14T06:18:37;8.85;;;8.15;;
78674;SDS011;67990;59.826;30.108;2023-06-14T06:21:22;8.50;;;7.80;;
78674;SDS011;67990;59.826;30.108;2023-06-14T06:23:49;8.52;;;7.82;;
78674;SDS011;67990;59.826;30.108;2023-06-14T06:26:16;8.73;;;8.00;;
78674;SDS011;67990;59.826;30.108;2023-06-14T06:28:45;8.70;;;7.90;;
78674;SDS011;67990;59.826;30.108;2023-06-14T06:31:12;8.27;;;7.57;;
78674;SDS011;67990;59.826;30.108;2023-06-14T06:33:39;10.05;;;9.15;;
78674;SDS011;67990;59.826;30.108;2023-06-14T06:36:07;8.73;;;8.02;;
78674;SDS011;67990;59.826;30.108;2023-06-14T06:38:34;10.07;;;9.27;;
78674;SDS011;67990;59.826;30.108;2023-06-14T06:41:01;8.20;;;7.40;;
78674;SDS011;67990;59.826;30.108;2023-06-14T06:43:28;8.60;;;7.78;;
78674;SDS011;67990;59.826;30.108;2023-06-14T06:46:17;7.93;;;7.22;;
78674;SDS011;67990;59.826;30.108;2023-06-14T06:49:03;8.18;;;7.38;;
78674;SDS011;67990;59.826;30.108;2023-06-14T06:51:30;8.52;;;7.75;;
78674;SDS011;67990;59.826;30.108;2023-06-14T06:56:42;8.90;;;8.20;;
78674;SDS011;67990;59.826;30.108;2023-06-14T06:59:10;9.00;;;8.20;;
78674;SDS011;67990;59.826;30.108;2023-06-14T07:01:40;10.23;;;9.43;;
78674;SDS011;67990;59.826;30.108;2023-06-14T07:04:07;9.52;;;8.60;;
78674;SDS011;67990;59.826;30.108;2023-06-14T07:06:52;8.53;;;7.70;;
78674;SDS011;67990;59.826;30.108;2023-06-14T07:09:19;7.97;;;7.38;;
78674;SDS011;67990;59.826;30.108;2023-06-14T07:11:46;8.10;;;7.28;;
78674;SDS011;67990;59.826;30.108;2023-06-14T07:14:31;8.23;;;7.60;;
78674;SDS011;67990;59.826;30.108;2023-06-14T07:17:00;7.90;;;7.15;;
78674;SDS011;67990;59.826;30.108;2023-06-14T07:19:28;7.47;;;6.77;;
78674;SDS011;67990;59.826;30.108;2023-06-14T07:21:56;7.38;;;6.70;;
78674;SDS011;67990;59.826;30.108;2023-06-14T07:24:23;8.43;;;7.72;;
78674;SDS011;67990;59.826;30.108;2023-06-14T07:27:09;8.18;;;7.47;;
78674;SDS011;67990;59.826;30.108;2023-06-14T07:32:58;8.43;;;7.73;;
78674;SDS011;67990;59.826;30.108;2023-06-14T07:35:26;8.18;;;7.57;;
78674;SDS011;67990;59.826;30.108;2023-06-14T07:38:11;9.25;;;8.55;;
78674;SDS011;67990;59.826;30.108;2023-06-14T07:40:38;8.45;;;7.65;;
78674;SDS011;67990;59.826;30.108;2023-06-14T07:43:06;9.80;;;9.00;;
78674;SDS011;67990;59.826;30.108;2023-06-14T07:45:51;7.90;;;7.30;;
78674;SDS011;67990;59.826;30.108;2023-06-14T07:48:38;8.80;;;8.00;;
78674;SDS011;67990;59.826;30.108;2023-06-14T07:51:23;9.85;;;9.05;;
78674;SDS011;67990;59.826;30.108;2023-06-14T07:54:10;9.63;;;8.93;;
78674;SDS011;67990;59.826;30.108;2023-06-14T07:56:37;10.30;;;9.60;;
78674;SDS011;67990;59.826;30.108;2023-06-14T07:59:04;9.00;;;8.30;;
78674;SDS011;67990;59.826;30.108;2023-06-14T08:01:33;10.35;;;9.52;;
78674;SDS011;67990;59.826;30.108;2023-06-14T08:04:21;9.05;;;8.15;;
78674;SDS011;67990;59.826;30.108;2023-06-14T08:06:49;10.70;;;9.63;;
78674;SDS011;67990;59.826;30.108;2023-06-14T08:09:16;10.27;;;9.38;;
78674;SDS011;67990;59.826;30.108;2023-06-14T08:11:43;8.50;;;7.77;;
78674;SDS011;67990;59.826;30.108;2023-06-14T08:14:29;8.68;;;7.90;;
78674;SDS011;67990;59.826;30.108;2023-06-14T08:17:14;9.02;;;8.32;;
78674;SDS011;67990;59.826;30.108;2023-06-14T08:19:43;8.52;;;7.82;;
78674;SDS011;67990;59.826;30.108;2023-06-14T08:22:10;8.50;;;7.78;;
78674;SDS011;67990;59.826;30.108;2023-06-14T08:27:24;10.02;;;9.23;;
78674;SDS011;67990;59.826;30.108;2023-06-14T08:29:51;9.95;;;9.23;;
78674;SDS011;67990;59.826;30.108;2023-06-14T08:32:36;7.78;;;7.10;;
78674;SDS011;67990;59.826;30.108;2023-06-14T08:37:53;7.80;;;7.00;;
78674;SDS011;67990;59.826;30.108;2023-06-14T08:40:22;8.25;;;7.07;;
78674;SDS011;67990;59.826;30.108;2023-06-14T08:42:50;7.80;;;7.10;;
78674;SDS011;67990;59.826;30.108;2023-06-14T08:45:19;9.05;;;6.57;;
78674;SDS011;67990;59.826;30.108;2023-06-14T08:48:06;8.50;;;6.30;;
78674;SDS011;67990;59.826;30.108;2023-06-14T08:50:35;7.33;;;6.43;;
78674;SDS011;67990;59.826;30.108;2023-06-14T08:53:23;7.85;;;6.50;;
78674;SDS011;67990;59.826;30.108;2023-06-14T08:55:52;7.45;;;6.25;;
78674;SDS011;67990;59.826;30.108;2023-06-14T08:58:21;7.75;;;5.72;;
78674;SDS011;67990;59.826;30.108;2023-06-14T09:03:37;7.30;;;5.60;;
78674;SDS011;67990;59.826;30.108;2023-06-14T09:06:08;7.35;;;5.25;;
78674;SDS011;67990;59.826;30.108;2023-06-14T09:11:24;8.93;;;5.35;;
78674;SDS011;67990;59.826;30.108;2023-06-14T09:13:53;7.35;;;6.25;;
78674;SDS011;67990;59.826;30.108;2023-06-14T09:16:20;6.97;;;6.10;;
78674;SDS011;67990;59.826;30.108;2023-06-14T09:21:35;7.95;;;6.05;;
78674;SDS011;67990;59.826;30.108;2023-06-14T09:24:02;9.20;;;5.88;;
78674;SDS011;67990;59.826;30.108;2023-06-14T09:26:47;8.68;;;6.25;;
78674;SDS011;67990;59.826;30.108;2023-06-14T09:29:33;7.20;;;5.80;;
78674;SDS011;67990;59.826;30.108;2023-06-14T09:32:00;9.40;;;6.20;;
78674;SDS011;67990;59.826;30.108;2023-06-14T09:34:28;7.22;;;5.20;;
78674;SDS011;67990;59.826;30.108;2023-06-14T09:36:57;7.88;;;5.43;;
78674;SDS011;67990;59.826;30.108;2023-06-14T09:39:24;6.90;;;5.15;;
78674;SDS011;67990;59.826;30.108;2023-06-14T09:41:52;7.13;;;5.33;;
78674;SDS011;67990;59.826;30.108;2023-06-14T09:44:19;6.70;;;5.37;;
78674;SDS011;67990;59.826;30.108;2023-06-14T09:46:47;6.53;;;4.28;;
78674;SDS011;67990;59.826;30.108;2023-06-14T09:49:15;7.55;;;4.80;;
78674;SDS011;67990;59.826;30.108;2023-06-14T09:52:02;6.55;;;4.25;;
78674;SDS011;67990;59.826;30.108;2023-06-14T09:54:31;8.07;;;4.43;;
78674;SDS011;67990;59.826;30.108;2023-06-14T09:57:21;7.23;;;4.03;;
78674;SDS011;67990;59.826;30.108;2023-06-14T09:59:52;6.60;;;3.90;;
78674;SDS011;67990;59.826;30.108;2023-06-14T10:05:14;6.28;;;4.35;;
78674;SDS011;67990;59.826;30.108;2023-06-14T10:07:48;7.63;;;3.88;;
78674;SDS011;67990;59.826;30.108;2023-06-14T10:10:19;7.43;;;3.47;;
78674;SDS011;67990;59.826;30.108;2023-06-14T10:13:05;5.30;;;3.37;;
78674;SDS011;67990;59.826;30.108;2023-06-14T10:15:35;5.33;;;3.70;;
78674;SDS011;67990;59.826;30.108;2023-06-14T10:18:23;5.18;;;3.28;;
78674;SDS011;67990;59.826;30.108;2023-06-14T10:21:01;6.90;;;2.67;;
78674;SDS011;67990;59.826;30.108;2023-06-14T10:23:37;9.38;;;3.22;;
78674;SDS011;67990;59.826;30.108;2023-06-14T10:26:25;6.00;;;3.00;;
78674;SDS011;67990;59.826;30.108;2023-06-14T10:29:09;10.07;;;3.22;;
78674;SDS011;67990;59.826;30.108;2023-06-14T10:31:40;9.80;;;2.90;;
78674;SDS011;67990;59.826;30.108;2023-06-14T10:37:00;9.93;;;2.95;;
78674;SDS011;67990;59.826;30.108;2023-06-14T10:42:18;4.53;;;2.47;;
78674;SDS011;67990;59.826;30.108;2023-06-14T10:44:52;9.30;;;2.65;;
78674;SDS011;67990;59.826;30.108;2023-06-14T10:47:37;5.78;;;2.72;;
78674;SDS011;67990;59.826;30.108;2023-06-14T10:50:05;6.17;;;2.33;;
78674;SDS011;67990;59.826;30.108;2023-06-14T10:52:52;4.67;;;2.33;;
78674;SDS011;67990;59.826;30.108;2023-06-14T10:55:20;5.50;;;2.50;;
78674;SDS011;67990;59.826;30.108;2023-06-14T10:57:50;5.15;;;2.67;;
78674;SDS011;67990;59.826;30.108;2023-06-14T11:00:36;5.50;;;2.55;;
78674;SDS011;67990;59.826;30.108;2023-06-14T11:06:12;4.78;;;2.15;;
78674;SDS011;67990;59.826;30.108;2023-06-14T11:11:51;7.93;;;2.78;;
78674;SDS011;67990;59.826;30.108;2023-06-14T11:14:20;7.82;;;2.88;;
78674;SDS011;67990;59.826;30.108;2023-06-14T11:19:33;7.20;;;2.50;;
78674;SDS011;67990;59.826;30.108;2023-06-14T11:24:47;4.90;;;2.30;;
78674;SDS011;67990;59.826;30.108;2023-06-14T11:27:15;8.07;;;2.00;;
78674;SDS011;67990;59.826;30.108;2023-06-14T11:29:47;5.07;;;2.67;;
78674;SDS011;67990;59.826;30.108;2023-06-14T11:32:15;4.88;;;2.20;;
78674;SDS011;67990;59.826;30.108;2023-06-14T11:34:45;5.22;;;2.15;;
78674;SDS011;67990;59.826;30.108;2023-06-14T11:37:12;7.00;;;2.65;;
78674;SDS011;67990;59.826;30.108;2023-06-14T11:39:43;8.13;;;2.67;;
78674;SDS011;67990;59.826;30.108;2023-06-14T11:42:13;6.40;;;2.77;;
78674;SDS011;67990;59.826;30.108;2023-06-14T11:44:42;5.32;;;2.60;;
78674;SDS011;67990;59.826;30.108;2023-06-14T11:47:31;7.68;;;2.63;;
78674;SDS011;67990;59.826;30.108;2023-06-14T11:49:58;7.07;;;2.42;;
78674;SDS011;67990;59.826;30.108;2023-06-14T11:52:25;6.97;;;2.47;;
78674;SDS011;67990;59.826;30.108;2023-06-14T11:54:53;5.45;;;2.38;;
78674;SDS011;67990;59.826;30.108;2023-06-14T11:57:21;6.10;;;2.90;;
78674;SDS011;67990;59.826;30.108;2023-06-14T12:02:37;5.63;;;2.33;;
78674;SDS011;67990;59.826;30.108;2023-06-14T12:05:06;4.88;;;2.30;;
78674;SDS011;67990;59.826;30.108;2023-06-14T12:07:35;5.88;;;2.55;;
78674;SDS011;67990;59.826;30.108;2023-06-14T12:10:05;5.30;;;2.33;;
78674;SDS011;67990;59.826;30.108;2023-06-14T12:12:35;6.53;;;2.50;;
78674;SDS011;67990;59.826;30.108;2023-06-14T12:15:24;5.15;;;2.80;;
78674;SDS011;67990;59.826;30.108;2023-06-14T12:17:51;6.40;;;2.70;;
78674;SDS011;67990;59.826;30.108;2023-06-14T12:25:52;5.95;;;2.33;;
78674;SDS011;67990;59.826;30.108;2023-06-14T12:28:19;8.02;;;2.95;;
78674;SDS011;67990;59.826;30.108;2023-06-14T12:31:01;5.80;;;2.80;;
78674;SDS011;67990;59.826;30.108;2023-06-14T12:33:46;7.37;;;2.47;;
78674;SDS011;67990;59.826;30.108;2023-06-14T12:36:14;6.40;;;2.30;;
78674;SDS011;67990;59.826;30.108;2023-06-14T12:38:42;7.45;;;2.13;;
78674;SDS011;67990;59.826;30.108;2023-06-14T12:41:09;6.00;;;2.95;;
78674;SDS011;67990;59.826;30.108;2023-06-14T12:43:55;4.97;;;2.47;;
78674;SDS011;67990;59.826;30.108;2023-06-14T12:46:24;5.53;;;2.80;;
78674;SDS011;67990;59.826;30.108;2023-06-14T12:49:10;4.80;;;2.63;;
78674;SDS011;67990;59.826;30.108;2023-06-14T12:51:38;6.97;;;2.53;;
78674;SDS011;67990;59.826;30.108;2023-06-14T12:54:23;6.60;;;2.70;;
78674;SDS011;67990;59.826;30.108;2023-06-14T12:57:09;5.97;;;2.58;;
78674;SDS011;67990;59.826;30.108;2023-06-14T12:59:36;5.07;;;2.53;;
78674;SDS011;67990;59.826;30.108;2023-06-14T13:02:23;6.25;;;2.70;;
78674;SDS011;67990;59.826;30.108;2023-06-14T13:04:51;6.72;;;2.80;;
78674;SDS011;67990;59.826;30.108;2023-06-14T13:07:18;5.57;;;2.92;;
78674;SDS011;67990;59.826;30.108;2023-06-14T13:10:03;4.50;;;2.50;;
78674;SDS011;67990;59.826;30.108;2023-06-14T13:12:31;5.40;;;2.50;;
78674;SDS011;67990;59.826;30.108;2023-06-14T13:14:58;5.15;;;2.90;;
78674;SDS011;67990;59.826;30.108;2023-06-14T13:17:26;5.13;;;2.42;;
78674;SDS011;67990;59.826;30.108;2023-06-14T13:19:54;5.13;;;2.38;;
78674;SDS011;67990;59.826;30.108;2023-06-14T13:22:21;6.37;;;2.20;;
78674;SDS011;67990;59.826;30.108;2023-06-14T13:27:34;4.85;;;2.70;;
78674;SDS011;67990;59.826;30.108;2023-06-14T13:30:20;6.07;;;3.03;;
78674;SDS011;67990;59.826;30.108;2023-06-14T13:32:49;4.25;;;2.17;;
78674;SDS011;67990;59.826;30.108;2023-06-14T13:35:36;3.70;;;2.30;;
78674;SDS011;67990;59.826;30.108;2023-06-14T13:40:48;4.40;;;2.73;;
78674;SDS011;67990;59.826;30.108;2023-06-14T13:43:16;4.05;;;2.10;;
78674;SDS011;67990;59.826;30.108;2023-06-14T13:45:43;5.85;;;2.30;;
78674;SDS011;67990;59.826;30.108;2023-06-14T13:48:29;4.80;;;2.78;;
78674;SDS011;67990;59.826;30.108;2023-06-14T13:50:59;4.90;;;2.38;;
78674;SDS011;67990;59.826;30.108;2023-06-14T13:53:26;9.07;;;2.50;;
78674;SDS011;67990;59.826;30.108;2023-06-14T13:58:39;5.93;;;2.80;;
78674;SDS011;67990;59.826;30.108;2023-06-14T14:01:07;6.40;;;2.53;;
78674;SDS011;67990;59.826;30.108;2023-06-14T14:03:36;6.15;;;2.53;;
78674;SDS011;67990;59.826;30.108;2023-06-14T14:06:24;7.47;;;2.70;;
78674;SDS011;67990;59.826;30.108;2023-06-14T14:08:51;10.05;;;3.30;;
78674;SDS011;67990;59.826;30.108;2023-06-14T14:11:19;7.10;;;2.30;;
78674;SDS011;67990;59.826;30.108;2023-06-14T14:13:46;8.75;;;2.42;;
78674;SDS011;67990;59.826;30.108;2023-06-14T14:16:13;5.93;;;2.58;;
78674;SDS011;67990;59.826;30.108;2023-06-14T14:19:00;6.90;;;2.80;;
78674;SDS011;67990;59.826;30.108;2023-06-14T14:21:27;6.80;;;2.57;;
78674;SDS011;67990;59.826;30.108;2023-06-14T14:23:54;5.65;;;2.60;;
78674;SDS011;67990;59.826;30.108;2023-06-14T14:26:21;5.07;;;2.47;;
78674;SDS011;67990;59.826;30.108;2023-06-14T14:29:08;6.07;;;2.70;;
78674;SDS011;67990;59.826;30.108;2023-06-14T14:31:36;6.32;;;2.90;;
78674;SDS011;67990;59.826;30.108;2023-06-14T14:34:05;5.50;;;2.90;;
78674;SDS011;67990;59.826;30.108;2023-06-14T14:36:32;6.80;;;3.05;;
78674;SDS011;67990;59.826;30.108;2023-06-14T14:39:03;7.40;;;3.72;;
78674;SDS011;67990;59.826;30.108;2023-06-14T14:41:49;7.05;;;3.38;;
78674;SDS011;67990;59.826;30.108;2023-06-14T14:44:18;6.20;;;2.70;;
78674;SDS011;67990;59.826;30.108;2023-06-14T14:46:45;5.35;;;2.58;;
78674;SDS011;67990;59.826;30.108;2023-06-14T14:49:50;5.47;;;2.88;;
78674;SDS011;67990;59.826;30.108;2023-06-14T14:52:17;6.60;;;3.03;;
78674;SDS011;67990;59.826;30.108;2023-06-14T14:54:45;6.28;;;3.33;;
78674;SDS011;67990;59.826;30.108;2023-06-14T14:57:12;5.55;;;2.67;;
78674;SDS011;67990;59.826;30.108;2023-06-14T14:59:39;7.38;;;3.00;;
78674;SDS011;67990;59.826;30.108;2023-06-14T15:02:06;9.50;;;3.47;;
78674;SDS011;67990;59.826;30.108;2023-06-14T15:04:33;7.10;;;3.43;;
78674;SDS011;67990;59.826;30.108;2023-06-14T15:07:02;10.45;;;3.13;;
78674;SDS011;67990;59.826;30.108;2023-06-14T15:09:47;5.97;;;2.50;;
78674;SDS011;67990;59.826;30.108;2023-06-14T15:12:16;5.88;;;3.50;;
78674;SDS011;67990;59.826;30.108;2023-06-14T15:14:45;6.72;;;3.13;;
78674;SDS011;67990;59.826;30.108;2023-06-14T15:19:58;5.60;;;3.07;;
78674;SDS011;67990;59.826;30.108;2023-06-14T15:22:44;6.30;;;3.20;;
78674;SDS011;67990;59.826;30.108;2023-06-14T15:25:11;9.00;;;3.70;;
78674;SDS011;67990;59.826;30.108;2023-06-14T15:27:38;8.52;;;3.50;;
78674;SDS011;67990;59.826;30.108;2023-06-14T15:30:06;7.03;;;3.22;;
78674;SDS011;67990;59.826;30.108;2023-06-14T15:32:34;6.00;;;3.70;;
78674;SDS011;67990;59.826;30.108;2023-06-14T15:37:48;6.13;;;3.27;;
78674;SDS011;67990;59.826;30.108;2023-06-14T15:40:16;5.77;;;3.20;;
78674;SDS011;67990;59.826;30.108;2023-06-14T15:42:43;7.13;;;3.45;;
78674;SDS011;67990;59.826;30.108;2023-06-14T15:45:10;8.48;;;3.60;;
78674;SDS011;67990;59.826;30.108;2023-06-14T15:47:37;6.93;;;3.35;;
78674;SDS011;67990;59.826;30.108;2023-06-14T15:50:23;7.82;;;3.33;;
78674;SDS011;67990;59.826;30.108;2023-06-14T15:52:52;7.57;;;3.40;;
78674;SDS011;67990;59.826;30.108;2023-06-14T15:55:19;6.70;;;3.20;;
78674;SDS011;67990;59.826;30.108;2023-06-14T15:57:46;5.97;;;3.03;;
78674;SDS011;67990;59.826;30.108;2023-06-14T16:00:14;6.25;;;2.92;;
78674;SDS011;67990;59.826;30.108;2023-06-14T16:03:01;7.07;;;3.70;;
78674;SDS011;67990;59.826;30.108;2023-06-14T16:05:45;5.78;;;3.70;;
78674;SDS011;67990;59.826;30.108;2023-06-14T16:08:14;6.28;;;3.78;;
78674;SDS011;67990;59.826;30.108;2023-06-14T16:10:41;7.00;;;2.95;;
78674;SDS011;67990;59.826;30.108;2023-06-14T16:13:08;7.47;;;3.23;;
78674;SDS011;67990;59.826;30.108;2023-06-14T16:15:35;5.50;;;3.23;;
78674;SDS011;67990;59.826;30.108;2023-06-14T16:18:03;6.43;;;4.05;;
78674;SDS011;67990;59.826;30.108;2023-06-14T16:20:30;6.72;;;4.00;;
78674;SDS011;67990;59.826;30.108;2023-06-14T16:25:44;7.95;;;4.38;;
78674;SDS011;67990;59.826;30.108;2023-06-14T16:28:29;8.07;;;3.88;;
78674;SDS011;67990;59.826;30.108;2023-06-14T16:30:57;6.60;;;3.63;;
78674;SDS011;67990;59.826;30.108;2023-06-14T16:33:42;7.00;;;3.60;;
78674;SDS011;67990;59.826;30.108;2023-06-14T16:36:27;6.57;;;3.40;;
78674;SDS011;67990;59.826;30.108;2023-06-14T16:38:55;7.07;;;3.78;;
78674;SDS011;67990;59.826;30.108;2023-06-14T16:41:41;5.75;;;3.78;;
78674;SDS011;67990;59.826;30.108;2023-06-14T16:46:54;7.50;;;3.95;;
78674;SDS011;67990;59.826;30.108;2023-06-14T16:49:39;6.17;;;3.20;;
78674;SDS011;67990;59.826;30.108;2023-06-14T16:52:24;6.90;;;3.60;;